createdAt,value
2023-03-02T00:01:29.303Z,0.15
2023-03-02T00:04:02.863Z,0.08
2023-03-02T00:06:34.138Z,0.01
2023-03-02T00:09:04.837Z,-0.06
2023-03-02T00:11:35.780Z,-0.11
2023-03-02T00:14:05.553Z,-0.14
2023-03-02T00:16:35.439Z,-0.14
2023-03-02T00:19:07.668Z,-0.14
2023-03-02T00:21:37.294Z,-0.15
2023-03-02T00:24:08.127Z,-0.11
2023-03-02T00:26:38.303Z,-0.09
2023-03-02T00:29:07.941Z,-0.10
2023-03-02T00:31:38.064Z,-0.09
2023-03-02T00:34:10.360Z,-0.10
2023-03-02T00:36:40.512Z,-0.14
2023-03-02T00:39:10.194Z,-0.21
2023-03-02T00:41:39.896Z,-0.29
2023-03-02T00:44:09.506Z,-0.32
2023-03-02T00:46:39.138Z,-0.35
2023-03-02T00:49:11.605Z,-0.41
2023-03-02T00:51:41.220Z,-0.48
2023-03-02T00:54:10.905Z,-0.58
2023-03-02T00:56:40.590Z,-0.66
2023-03-02T00:59:26.663Z,-0.76
2023-03-02T01:02:09.730Z,-0.85
2023-03-02T01:04:43.890Z,-0.90
2023-03-02T01:07:15.549Z,-0.92
2023-03-02T01:09:46.437Z,-0.90
2023-03-02T01:12:16.057Z,-0.88
2023-03-02T01:14:47.365Z,-0.79
2023-03-02T01:17:18.172Z,-0.72
2023-03-02T01:19:50.541Z,-0.66
2023-03-02T01:22:20.650Z,-0.60
2023-03-02T01:24:50.321Z,-0.57
2023-03-02T01:27:19.900Z,-0.54
2023-03-02T01:29:50.756Z,-0.49
2023-03-02T01:32:20.398Z,-0.47
2023-03-02T01:34:53.457Z,-0.48
2023-03-02T01:37:23.400Z,-0.50
2023-03-02T01:39:53.120Z,-0.49
2023-03-02T01:42:22.800Z,-0.47
2023-03-02T01:44:54.210Z,-0.41
2023-03-02T01:47:26.188Z,-0.37
2023-03-02T01:50:26.694Z,-0.32
2023-03-02T01:53:00.525Z,-0.34
2023-03-02T01:55:32.816Z,-0.37
2023-03-02T01:58:03.421Z,-0.42
2023-03-02T02:00:36.137Z,-0.52
2023-03-02T02:03:11.488Z,-0.63
2023-03-02T02:05:46.504Z,-0.74
2023-03-02T02:08:16.652Z,-0.87
2023-03-02T02:10:46.402Z,-0.96
2023-03-02T02:13:16.072Z,-1.04
2023-03-02T02:15:45.693Z,-1.09
2023-03-02T02:18:15.306Z,-1.14
2023-03-02T02:20:48.877Z,-1.18
2023-03-02T02:23:29.064Z,-1.22
2023-03-02T02:26:18.600Z,-1.27
2023-03-02T02:28:57.790Z,-1.37
2023-03-02T02:31:32.809Z,-1.43
2023-03-02T02:34:05.847Z,-1.50
2023-03-02T02:36:40.575Z,-1.57
2023-03-02T02:39:19.283Z,-1.63
2023-03-02T02:41:52.651Z,-1.69
2023-03-02T02:44:22.528Z,-1.74
2023-03-02T02:46:52.188Z,-1.78
2023-03-02T02:49:30.766Z,-1.80
2023-03-02T02:52:00.675Z,-1.82
2023-03-02T02:54:31.751Z,-1.83
2023-03-02T02:57:05.743Z,-1.86
2023-03-02T02:59:39.993Z,-1.86
2023-03-02T03:02:14.178Z,-1.85
2023-03-02T03:04:43.903Z,-1.85
2023-03-02T03:07:16.644Z,-1.87
2023-03-02T03:09:46.456Z,-1.88
2023-03-02T03:12:20.485Z,-1.88
2023-03-02T03:14:50.691Z,-1.87
2023-03-02T03:17:20.273Z,-1.86
2023-03-02T03:20:06.671Z,-1.83
2023-03-02T03:22:40.248Z,-1.78
2023-03-02T03:25:15.623Z,-1.72
2023-03-02T03:27:50.436Z,-1.66
2023-03-02T03:30:22.296Z,-1.63
2023-03-02T03:32:52.362Z,-1.60
2023-03-02T03:35:22.342Z,-1.59
2023-03-02T03:37:52.359Z,-1.50
2023-03-02T03:40:22.957Z,-1.39
2023-03-02T03:42:56.181Z,-1.26
2023-03-02T03:45:26.056Z,-1.18
2023-03-02T03:47:55.683Z,-1.12
2023-03-02T03:50:25.386Z,-1.06
2023-03-02T03:52:54.999Z,-1.02
2023-03-02T03:55:30.199Z,-0.99
2023-03-02T03:58:03.021Z,-0.99
2023-03-02T04:00:33.132Z,-0.94
2023-03-02T04:03:08.787Z,-0.88
2023-03-02T04:05:38.600Z,-0.82
2023-03-02T04:08:09.042Z,-0.80
2023-03-02T04:10:39.712Z,-0.80
2023-03-02T04:13:12.327Z,-0.82
2023-03-02T04:15:43.957Z,-0.89
2023-03-02T04:18:15.181Z,-0.92
2023-03-02T04:20:44.865Z,-0.94
2023-03-02T04:23:15.548Z,-0.96
2023-03-02T04:25:45.592Z,-0.96
2023-03-02T04:28:21.759Z,-0.99
2023-03-02T04:30:52.317Z,-1.03
2023-03-02T04:33:21.931Z,-1.04
2023-03-02T04:35:52.289Z,-1.00
2023-03-02T04:38:21.874Z,-0.93
2023-03-02T04:40:51.781Z,-0.87
2023-03-02T04:43:23.991Z,-0.77
2023-03-02T04:45:53.656Z,-0.69
2023-03-02T04:48:24.375Z,-0.58
2023-03-02T04:50:54.006Z,-0.52
2023-03-02T04:53:23.621Z,-0.46
2023-03-02T04:55:53.258Z,-0.43
2023-03-02T04:58:25.430Z,-0.41
2023-03-02T05:01:02.122Z,-0.38
2023-03-02T05:03:31.752Z,-0.35
2023-03-02T05:06:02.284Z,-0.32
2023-03-02T05:08:31.940Z,-0.31
2023-03-02T05:11:01.548Z,-0.31
2023-03-02T05:13:33.725Z,-0.31
2023-03-02T05:16:03.735Z,-0.33
2023-03-02T05:18:33.336Z,-0.33
2023-03-02T05:21:02.944Z,-0.32
2023-03-02T05:23:32.526Z,-0.30
2023-03-02T05:26:02.506Z,-0.29
2023-03-02T05:28:35.070Z,-0.27
2023-03-02T05:31:05.106Z,-0.27
2023-03-02T05:33:34.736Z,-0.24
2023-03-02T05:36:04.475Z,-0.23
2023-03-02T05:38:34.598Z,-0.22
2023-03-02T05:41:04.221Z,-0.20
2023-03-02T05:43:36.432Z,-0.15
2023-03-02T05:46:06.187Z,-0.12
2023-03-02T05:48:35.818Z,-0.10
2023-03-02T05:51:05.539Z,-0.09
2023-03-02T05:53:35.122Z,-0.05
2023-03-02T05:56:04.716Z,-0.05
2023-03-02T05:58:36.903Z,-0.03
2023-03-02T06:01:12.256Z,-0.03
2023-03-02T06:03:44.551Z,-0.05
2023-03-02T06:06:15.130Z,-0.06
2023-03-02T06:08:45.263Z,-0.08
2023-03-02T06:11:14.887Z,-0.11
2023-03-02T06:13:47.165Z,-0.17
2023-03-02T06:16:16.936Z,-0.22
2023-03-02T06:18:46.853Z,-0.27
2023-03-02T06:21:17.112Z,-0.29
2023-03-02T06:23:46.707Z,-0.31
2023-03-02T06:26:16.719Z,-0.32
2023-03-02T06:28:53.301Z,-0.31
2023-03-02T06:31:23.566Z,-0.30
2023-03-02T06:33:53.495Z,-0.27
2023-03-02T06:36:23.321Z,-0.21
2023-03-02T06:38:53.393Z,-0.10
2023-03-02T06:41:23.363Z,0.03
2023-03-02T06:43:55.542Z,0.19
2023-03-02T06:46:25.141Z,0.35
2023-03-02T06:48:54.884Z,0.54
2023-03-02T06:51:24.524Z,0.74
2023-03-02T06:53:54.140Z,1.00
2023-03-02T06:56:23.848Z,1.36
2023-03-02T06:58:56.021Z,1.82
2023-03-02T07:01:25.702Z,2.39
2023-03-02T07:03:55.361Z,3.03
2023-03-02T07:06:24.978Z,3.76
2023-03-02T07:08:54.610Z,4.45
2023-03-02T07:11:24.386Z,5.02
2023-03-02T07:13:56.841Z,5.53
2023-03-02T07:16:26.481Z,6.07
2023-03-02T07:18:56.166Z,6.53
2023-03-02T07:21:25.753Z,7.11
2023-03-02T07:23:55.363Z,7.61
2023-03-02T07:26:24.924Z,7.85
2023-03-02T07:28:59.383Z,7.89
2023-03-02T07:31:29.160Z,8.35
2023-03-02T07:33:58.817Z,9.12
2023-03-02T07:36:28.987Z,9.91
2023-03-02T07:38:58.560Z,10.60
2023-03-02T07:41:28.123Z,11.31
2023-03-02T07:44:01.111Z,12.00
2023-03-02T07:46:30.859Z,12.62
2023-03-02T07:49:01.100Z,13.23
2023-03-02T07:51:30.905Z,13.82
2023-03-02T07:54:02.874Z,14.31
2023-03-02T07:56:32.569Z,14.79
2023-03-02T07:59:04.810Z,15.26
2023-03-02T08:01:34.786Z,15.70
2023-03-02T08:04:04.602Z,16.15
2023-03-02T08:06:34.166Z,16.60
2023-03-02T08:09:04.881Z,17.08
2023-03-02T08:11:35.182Z,17.51
2023-03-02T08:14:07.577Z,17.92
2023-03-02T08:16:37.448Z,18.31
2023-03-02T08:19:07.134Z,18.68
2023-03-02T08:21:36.762Z,18.91
2023-03-02T08:24:06.884Z,18.78
2023-03-02T08:26:36.450Z,18.67
2023-03-02T08:29:09.372Z,18.75
2023-03-02T08:31:39.186Z,18.88
2023-03-02T08:34:08.791Z,19.04
2023-03-02T08:36:38.386Z,19.22
2023-03-02T08:39:08.006Z,19.19
2023-03-02T08:41:37.611Z,19.10
2023-03-02T08:44:10.052Z,18.94
2023-03-02T08:46:39.638Z,18.60
2023-03-02T08:49:09.275Z,18.25
2023-03-02T08:51:39.002Z,18.00
2023-03-02T08:54:08.678Z,17.63
2023-03-02T08:56:40.263Z,17.19
2023-03-02T08:59:15.085Z,16.95
2023-03-02T09:01:44.898Z,16.94
2023-03-02T09:04:14.599Z,16.77
2023-03-02T09:06:47.454Z,16.65
2023-03-02T09:09:17.858Z,16.58
2023-03-02T09:11:47.831Z,16.95
2023-03-02T09:14:20.021Z,17.20
2023-03-02T09:16:49.677Z,17.04
2023-03-02T09:19:19.242Z,16.85
2023-03-02T09:21:49.879Z,16.86
2023-03-02T09:24:19.487Z,16.75
2023-03-02T09:26:49.081Z,17.02
2023-03-02T09:29:21.236Z,17.17
2023-03-02T09:31:50.867Z,17.21
2023-03-02T09:34:20.546Z,17.61
2023-03-02T09:36:50.242Z,17.84
2023-03-02T09:39:19.785Z,17.95
2023-03-02T09:42:14.602Z,17.84
2023-03-02T09:45:18.963Z,18.19
2023-03-02T09:47:55.330Z,18.00
2023-03-02T09:50:30.447Z,17.80
2023-03-02T09:53:12.258Z,18.06
2023-03-02T09:55:41.908Z,18.43
2023-03-02T09:58:17.853Z,18.59
2023-03-02T10:00:50.639Z,18.81
2023-03-02T10:03:22.594Z,18.97
2023-03-02T10:05:54.080Z,18.74
2023-03-02T10:08:25.988Z,18.48
2023-03-02T10:11:01.568Z,18.52
2023-03-02T10:13:32.520Z,18.60
2023-03-02T10:16:18.251Z,18.19
2023-03-02T10:18:50.229Z,17.78
2023-03-02T10:21:24.972Z,16.84
2023-03-02T10:23:59.096Z,16.11
2023-03-02T10:26:34.657Z,15.41
2023-03-02T10:29:14.477Z,14.57
2023-03-02T10:31:49.706Z,13.88
2023-03-02T10:34:19.555Z,13.38
2023-03-02T10:36:49.803Z,12.85
2023-03-02T10:39:20.484Z,12.17
2023-03-02T10:41:53.756Z,11.67
2023-03-02T10:44:26.027Z,11.31
2023-03-02T10:46:59.257Z,10.95
2023-03-02T10:49:31.217Z,10.64
2023-03-02T10:52:03.383Z,10.39
2023-03-02T10:54:34.063Z,10.13
2023-03-02T10:57:05.953Z,9.90
2023-03-02T10:59:47.054Z,9.69
2023-03-02T11:02:23.496Z,9.46
2023-03-02T11:04:57.992Z,9.27
2023-03-02T11:07:29.006Z,9.08
2023-03-02T11:10:03.183Z,8.96
2023-03-02T11:12:32.745Z,8.89
2023-03-02T11:15:19.749Z,8.83
2023-03-02T11:17:54.509Z,8.71
2023-03-02T11:20:28.378Z,8.63
2023-03-02T11:23:06.763Z,8.54
2023-03-02T11:25:40.190Z,8.51
2023-03-02T11:28:17.162Z,8.49
2023-03-02T11:30:50.310Z,8.42
2023-03-02T11:33:25.060Z,8.38
2023-03-02T11:35:58.266Z,8.34
2023-03-02T11:38:30.746Z,8.30
2023-03-02T11:41:03.160Z,8.32
2023-03-02T11:43:33.116Z,8.29
2023-03-02T11:46:14.020Z,8.30
2023-03-02T11:48:54.569Z,8.28
2023-03-02T11:51:25.777Z,8.20
2023-03-02T11:53:59.336Z,8.08
2023-03-02T11:56:31.361Z,7.99
2023-03-02T11:59:04.722Z,7.90
2023-03-02T12:01:38.018Z,7.82
2023-03-02T12:04:27.314Z,7.74
2023-03-02T12:06:57.230Z,7.68
2023-03-02T12:09:37.175Z,7.71
2023-03-02T12:12:35.381Z,7.75
2023-03-02T12:15:05.586Z,7.72
2023-03-02T12:17:36.923Z,7.70
2023-03-02T12:20:27.060Z,7.71
2023-03-02T12:22:57.318Z,7.75
2023-03-02T12:25:32.051Z,7.78
2023-03-02T12:28:01.632Z,7.81
2023-03-02T12:30:31.715Z,7.84
2023-03-02T12:33:04.714Z,7.87
2023-03-02T12:35:37.808Z,7.93
2023-03-02T12:38:09.196Z,7.95
2023-03-02T12:40:48.200Z,7.97
2023-03-02T12:43:30.795Z,7.98
2023-03-02T12:46:28.601Z,8.01
2023-03-02T12:49:17.547Z,8.04
2023-03-02T12:51:54.191Z,8.07
2023-03-02T12:54:25.587Z,8.13
2023-03-02T12:57:08.792Z,8.20
2023-03-02T12:59:39.378Z,8.27
2023-03-02T13:02:17.211Z,8.35
2023-03-02T13:04:47.251Z,8.42
2023-03-02T13:07:22.614Z,8.47
2023-03-02T13:09:57.231Z,8.49
2023-03-02T13:12:29.588Z,8.56
2023-03-02T13:15:01.238Z,8.56
2023-03-02T13:17:32.841Z,8.58
2023-03-02T13:20:03.592Z,8.64
2023-03-02T13:22:35.897Z,8.67
2023-03-02T13:25:08.301Z,8.68
2023-03-02T13:27:37.908Z,8.64
2023-03-02T13:30:24.913Z,8.67
2023-03-02T13:32:54.692Z,8.70
2023-03-02T13:35:26.727Z,8.73
2023-03-02T13:38:04.606Z,8.75
2023-03-02T13:40:40.031Z,8.77
2023-03-02T13:43:23.735Z,8.79
2023-03-02T13:45:57.793Z,8.79
2023-03-02T13:48:27.778Z,8.81
2023-03-02T13:50:59.416Z,8.82
2023-03-02T13:53:38.254Z,8.85
2023-03-02T13:56:08.566Z,8.83
2023-03-02T13:58:41.040Z,8.85
2023-03-02T14:01:10.819Z,8.86
2023-03-02T14:03:40.567Z,8.89
2023-03-02T14:06:11.142Z,8.89
2023-03-02T14:08:43.409Z,8.90
2023-03-02T14:11:13.814Z,8.91
2023-03-02T14:13:45.222Z,8.92
2023-03-02T14:16:15.503Z,8.93
2023-03-02T14:18:47.560Z,8.94
2023-03-02T14:21:19.019Z,8.96
2023-03-02T14:23:52.655Z,8.98
2023-03-02T14:26:30.640Z,8.98
2023-03-02T14:29:05.692Z,8.98
2023-03-02T14:31:36.153Z,8.97
2023-03-02T14:34:05.974Z,8.96
2023-03-02T14:36:37.065Z,8.96
2023-03-02T14:39:14.076Z,8.98
2023-03-02T14:41:52.932Z,8.98
2023-03-02T14:44:24.079Z,9.00
2023-03-02T14:46:53.682Z,8.99
2023-03-02T14:49:23.368Z,9.00
2023-03-02T14:51:58.785Z,9.02
2023-03-02T14:54:34.362Z,9.03
2023-03-02T14:57:06.267Z,9.05
2023-03-02T14:59:35.851Z,9.06
2023-03-02T15:02:15.859Z,9.03
2023-03-02T15:04:56.599Z,8.99
2023-03-02T15:07:27.308Z,8.97
2023-03-02T15:10:00.366Z,8.97
2023-03-02T15:12:29.991Z,8.97
2023-03-02T15:14:59.659Z,8.98
2023-03-02T15:17:29.522Z,8.98
2023-03-02T15:19:59.141Z,8.96
2023-03-02T15:22:28.731Z,8.94
2023-03-02T15:25:00.954Z,8.92
2023-03-02T15:27:30.525Z,8.87
2023-03-02T15:30:00.107Z,8.86
2023-03-02T15:32:29.770Z,8.84
2023-03-02T15:34:59.394Z,8.84
2023-03-02T15:37:28.979Z,8.82
2023-03-02T15:40:01.257Z,8.82
2023-03-02T15:42:30.872Z,8.80
2023-03-02T15:45:00.506Z,8.78
2023-03-02T15:47:30.092Z,8.76
2023-03-02T15:49:59.704Z,8.73
2023-03-02T15:52:29.351Z,8.68
2023-03-02T15:55:01.564Z,8.64
2023-03-02T15:57:31.182Z,8.62
2023-03-02T16:00:01.207Z,8.59
2023-03-02T16:02:30.967Z,8.58
2023-03-02T16:05:00.576Z,8.55
2023-03-02T16:07:30.267Z,8.54
2023-03-02T16:10:02.487Z,8.52
2023-03-02T16:12:32.056Z,8.50
2023-03-02T16:15:01.720Z,8.47
2023-03-02T16:17:31.404Z,8.44
2023-03-02T16:20:01.057Z,8.41
2023-03-02T16:22:30.693Z,8.36
2023-03-02T16:25:02.881Z,8.31
2023-03-02T16:27:33.080Z,8.26
2023-03-02T16:30:02.640Z,8.21
2023-03-02T16:32:34.074Z,8.16
2023-03-02T16:35:03.672Z,8.12
2023-03-02T16:37:33.323Z,8.07
2023-03-02T16:40:05.502Z,8.01
2023-03-02T16:42:35.138Z,7.93
2023-03-02T16:45:04.967Z,7.86
2023-03-02T16:47:34.586Z,7.80
2023-03-02T16:50:05.189Z,7.73
2023-03-02T16:52:34.951Z,7.66
2023-03-02T16:55:10.621Z,7.61
2023-03-02T16:57:40.269Z,7.53
2023-03-02T17:00:13.980Z,7.49
2023-03-02T17:02:43.553Z,7.44
2023-03-02T17:05:14.233Z,7.41
2023-03-02T17:07:43.829Z,7.35
2023-03-02T17:10:19.673Z,7.26
2023-03-02T17:12:49.280Z,7.19
2023-03-02T17:15:19.144Z,7.12
2023-03-02T17:17:48.728Z,7.05
2023-03-02T17:20:18.869Z,7.01
2023-03-02T17:22:48.512Z,6.92
2023-03-02T17:25:21.047Z,6.83
2023-03-02T17:27:50.711Z,6.76
2023-03-02T17:30:20.950Z,6.67
2023-03-02T17:32:50.578Z,6.59
2023-03-02T17:35:20.164Z,6.53
2023-03-02T17:37:49.808Z,6.47
2023-03-02T17:40:22.325Z,6.40
2023-03-02T17:42:54.537Z,6.34
2023-03-02T17:45:28.072Z,6.24
2023-03-02T17:48:01.371Z,6.16
2023-03-02T17:50:31.873Z,6.09
2023-03-02T17:53:02.278Z,6.03
2023-03-02T17:55:34.583Z,5.98
2023-03-02T17:58:04.272Z,5.96
2023-03-02T18:00:34.008Z,5.92
2023-03-02T18:03:03.688Z,5.88
2023-03-02T18:05:33.371Z,5.85
2023-03-02T18:08:02.968Z,5.81
2023-03-02T18:10:35.162Z,5.78
2023-03-02T18:13:04.748Z,5.74
2023-03-02T18:15:34.551Z,5.71
2023-03-02T18:18:04.285Z,5.68
2023-03-02T18:20:34.376Z,5.65
2023-03-02T18:23:04.342Z,5.61
2023-03-02T18:25:36.686Z,5.56
2023-03-02T18:28:06.327Z,5.50
2023-03-02T18:30:36.000Z,5.47
2023-03-02T18:33:05.653Z,5.45
2023-03-02T18:35:35.297Z,5.43
2023-03-02T18:38:05.090Z,5.42
2023-03-02T18:40:37.442Z,5.36
2023-03-02T18:43:07.076Z,5.31
2023-03-02T18:45:36.962Z,5.23
2023-03-02T18:48:07.400Z,5.18
2023-03-02T18:50:37.111Z,5.15
2023-03-02T18:53:08.687Z,5.09
2023-03-02T18:55:41.030Z,5.02
2023-03-02T18:58:11.063Z,4.97
2023-03-02T19:00:41.358Z,4.89
2023-03-02T19:03:11.027Z,4.81
2023-03-02T19:05:40.843Z,4.71
2023-03-02T19:08:10.805Z,4.66
2023-03-02T19:10:43.294Z,4.61
2023-03-02T19:13:13.336Z,4.54
2023-03-02T19:15:43.308Z,4.47
2023-03-02T19:18:16.218Z,4.42
2023-03-02T19:20:46.133Z,4.37
2023-03-02T19:23:16.114Z,4.32
2023-03-02T19:25:48.529Z,4.27
2023-03-02T19:28:18.147Z,4.21
2023-03-02T19:30:47.720Z,4.15
2023-03-02T19:33:17.357Z,4.06
2023-03-02T19:35:47.263Z,4.01
2023-03-02T19:38:18.312Z,3.95
2023-03-02T19:40:50.534Z,3.88
2023-03-02T19:43:20.397Z,3.86
2023-03-02T19:45:50.039Z,3.81
2023-03-02T19:48:19.735Z,3.75
2023-03-02T19:50:49.559Z,3.70
2023-03-02T19:53:19.335Z,3.67
2023-03-02T19:55:52.699Z,3.62
2023-03-02T19:58:23.713Z,3.56
2023-03-02T20:00:53.404Z,3.51
2023-03-02T20:03:23.239Z,3.47
2023-03-02T20:05:53.351Z,3.44
2023-03-02T20:08:24.054Z,3.39
2023-03-02T20:10:56.334Z,3.35
2023-03-02T20:13:27.254Z,3.33
2023-03-02T20:15:56.944Z,3.29
2023-03-02T20:18:26.541Z,3.25
2023-03-02T20:20:56.230Z,3.20
2023-03-02T20:23:25.822Z,3.15
2023-03-02T20:25:58.417Z,3.07
2023-03-02T20:28:28.222Z,3.01
2023-03-02T20:30:59.373Z,2.93
2023-03-02T20:33:32.312Z,2.86
2023-03-02T20:36:03.179Z,2.82
2023-03-02T20:38:35.036Z,2.78
2023-03-02T20:41:07.972Z,2.71
2023-03-02T20:43:37.691Z,2.65
2023-03-02T20:46:08.390Z,2.60
2023-03-02T20:48:38.623Z,2.54
2023-03-02T20:51:08.514Z,2.51
2023-03-02T20:53:38.117Z,2.48
2023-03-02T20:56:11.358Z,2.47
2023-03-02T20:58:41.518Z,2.41
2023-03-02T21:01:11.260Z,2.35
2023-03-02T21:03:41.154Z,2.29
2023-03-02T21:06:11.043Z,2.25
2023-03-02T21:08:41.523Z,2.19
2023-03-02T21:11:16.322Z,2.16
2023-03-02T21:13:48.115Z,2.14
2023-03-02T21:16:23.009Z,2.13
2023-03-02T21:18:52.639Z,2.13
2023-03-02T21:21:32.517Z,2.12
2023-03-02T21:24:05.477Z,2.08
2023-03-02T21:26:37.805Z,2.03
2023-03-02T21:29:09.475Z,1.97
2023-03-02T21:31:39.429Z,1.92
2023-03-02T21:34:09.081Z,1.89
2023-03-02T21:36:39.157Z,1.84
2023-03-02T21:39:09.729Z,1.79
2023-03-02T21:41:42.137Z,1.76
2023-03-02T21:44:12.531Z,1.75
2023-03-02T21:46:42.283Z,1.76
2023-03-02T21:49:12.093Z,1.70
2023-03-02T21:51:41.771Z,1.62
2023-03-02T21:54:12.012Z,1.51
2023-03-02T21:56:44.563Z,1.40
2023-03-02T21:59:15.066Z,1.28
2023-03-02T22:01:44.812Z,1.17
2023-03-02T22:04:14.462Z,1.09
2023-03-02T22:06:44.104Z,0.98
2023-03-02T22:09:14.469Z,0.89
2023-03-02T22:11:47.636Z,0.79
2023-03-02T22:14:19.515Z,0.72
2023-03-02T22:16:49.998Z,0.65
2023-03-02T22:19:28.110Z,0.57
2023-03-02T22:21:59.957Z,0.50
2023-03-02T22:24:31.443Z,0.46
2023-03-02T22:27:13.408Z,0.49
2023-03-02T22:29:44.168Z,0.50
2023-03-02T22:32:18.235Z,0.49
2023-03-02T22:34:48.948Z,0.54
2023-03-02T22:37:20.444Z,0.54
2023-03-02T22:39:51.096Z,0.55
2023-03-02T22:42:25.266Z,0.55
2023-03-02T22:45:02.727Z,0.47
2023-03-02T22:47:32.337Z,0.39
2023-03-02T22:50:09.184Z,0.28
2023-03-02T22:52:43.865Z,0.19
2023-03-02T22:55:32.742Z,0.08
2023-03-02T22:58:20.845Z,-0.03
2023-03-02T23:00:51.111Z,-0.08
2023-03-02T23:03:21.856Z,-0.12
2023-03-02T23:05:53.468Z,-0.15
2023-03-02T23:08:25.807Z,-0.15
2023-03-02T23:10:57.682Z,-0.10
2023-03-02T23:13:41.783Z,-0.06
2023-03-02T23:16:17.565Z,-0.03
2023-03-02T23:18:47.969Z,-0.01
2023-03-02T23:21:20.266Z,0.00
2023-03-02T23:23:50.225Z,-0.02
2023-03-02T23:26:20.417Z,-0.05
2023-03-02T23:28:53.827Z,-0.07
2023-03-02T23:31:23.897Z,-0.11
2023-03-02T23:33:53.518Z,-0.15
2023-03-02T23:36:23.388Z,-0.21
2023-03-02T23:38:53.275Z,-0.26
2023-03-02T23:41:22.980Z,-0.35
2023-03-02T23:43:55.202Z,-0.37
2023-03-02T23:46:24.855Z,-0.43
2023-03-02T23:48:56.147Z,-0.50
2023-03-02T23:51:26.261Z,-0.59
2023-03-02T23:53:56.310Z,-0.66
2023-03-02T23:56:26.106Z,-0.71
2023-03-02T23:58:58.518Z,-0.71
